sensor_id;sensor_type;location;lat;lon;timestamp;pressure;altitude;pressure_sealevel;temperature;humidity
30730;BME280;17476;48.458;7.928;2023-08-06T00:03:01;99204.06;;;17.15;86.77
30730;BME280;17476;48.458;7.928;2023-08-06T00:05:28;99208.38;;;17.09;86.22
30730;BME280;17476;48.458;7.928;2023-08-06T00:07:54;99194.94;;;17.11;85.99
30730;BME280;17476;48.458;7.928;2023-08-06T00:10:22;99200.53;;;17.03;88.24
30730;BME280;17476;48.458;7.928;2023-08-06T00:12:48;99199.66;;;17.09;86.68
30730;BME280;17476;48.458;7.928;2023-08-06T00:15:14;99205.25;;;17.01;86.75
30730;BME280;17476;48.458;7.928;2023-08-06T00:17:40;99193.09;;;17.11;88.03
30730;BME280;17476;48.458;7.928;2023-08-06T00:20:06;99198.06;;;17.08;86.42
30730;BME280;17476;48.458;7.928;2023-08-06T00:22:34;99191.72;;;17.09;86.22
30730;BME280;17476;48.458;7.928;2023-08-06T00:25:00;99192.31;;;17.11;87.00
30730;BME280;17476;48.458;7.928;2023-08-06T00:27:26;99197.25;;;17.19;86.29
30730;BME280;17476;48.458;7.928;2023-08-06T00:29:52;99192.59;;;17.21;85.11
30730;BME280;17476;48.458;7.928;2023-08-06T00:32:18;99192.50;;;17.28;85.79
30730;BME280;17476;48.458;7.928;2023-08-06T00:34:44;99195.72;;;17.30;85.65
30730;BME280;17476;48.458;7.928;2023-08-06T00:37:09;99188.09;;;17.22;86.08
30730;BME280;17476;48.458;7.928;2023-08-06T00:39:35;99179.66;;;17.13;84.88
30730;BME280;17476;48.458;7.928;2023-08-06T00:42:01;99180.13;;;17.10;86.73
30730;BME280;17476;48.458;7.928;2023-08-06T00:44:27;99182.72;;;16.98;87.57
30730;BME280;17476;48.458;7.928;2023-08-06T00:46:53;99173.31;;;17.02;86.25
30730;BME280;17476;48.458;7.928;2023-08-06T00:49:19;99164.00;;;17.00;86.57
30730;BME280;17476;48.458;7.928;2023-08-06T00:51:45;99160.59;;;17.11;85.55
30730;BME280;17476;48.458;7.928;2023-08-06T00:54:10;99157.72;;;17.01;87.26
30730;BME280;17476;48.458;7.928;2023-08-06T00:56:37;99161.81;;;16.97;87.12
30730;BME280;17476;48.458;7.928;2023-08-06T00:59:04;99166.34;;;17.08;87.30
30730;BME280;17476;48.458;7.928;2023-08-06T01:01:31;99166.72;;;17.23;86.13
30730;BME280;17476;48.458;7.928;2023-08-06T01:03:57;99171.31;;;17.16;85.99
30730;BME280;17476;48.458;7.928;2023-08-06T01:06:48;99174.97;;;17.15;86.18
30730;BME280;17476;48.458;7.928;2023-08-06T01:09:28;99172.19;;;17.10;85.41
30730;BME280;17476;48.458;7.928;2023-08-06T01:12:12;99160.16;;;17.14;85.56
30730;BME280;17476;48.458;7.928;2023-08-06T01:15:11;99161.69;;;17.22;86.07
30730;BME280;17476;48.458;7.928;2023-08-06T01:17:40;99158.53;;;17.13;86.47
30730;BME280;17476;48.458;7.928;2023-08-06T01:20:06;99161.50;;;17.05;86.51
30730;BME280;17476;48.458;7.928;2023-08-06T01:22:32;99156.91;;;17.00;87.52
30730;BME280;17476;48.458;7.928;2023-08-06T01:24:58;99149.78;;;17.12;87.47
30730;BME280;17476;48.458;7.928;2023-08-06T01:27:33;99153.94;;;17.20;87.95
30730;BME280;17476;48.458;7.928;2023-08-06T01:30:41;99149.84;;;17.24;87.01
30730;BME280;17476;48.458;7.928;2023-08-06T01:33:12;99146.97;;;17.14;87.30
30730;BME280;17476;48.458;7.928;2023-08-06T01:35:42;99151.22;;;17.15;87.84
30730;BME280;17476;48.458;7.928;2023-08-06T01:38:08;99151.22;;;17.27;87.19
30730;BME280;17476;48.458;7.928;2023-08-06T01:40:34;99146.63;;;17.22;87.94
30730;BME280;17476;48.458;7.928;2023-08-06T01:43:00;99154.56;;;17.22;87.79
30730;BME280;17476;48.458;7.928;2023-08-06T01:45:26;99147.06;;;17.19;87.67
30730;BME280;17476;48.458;7.928;2023-08-06T01:47:52;99155.25;;;17.29;88.75
30730;BME280;17476;48.458;7.928;2023-08-06T01:50:17;99156.16;;;17.23;87.78
30730;BME280;17476;48.458;7.928;2023-08-06T01:52:43;99162.34;;;17.17;89.71
30730;BME280;17476;48.458;7.928;2023-08-06T01:55:09;99160.34;;;17.01;91.34
30730;BME280;17476;48.458;7.928;2023-08-06T01:57:35;99161.25;;;16.95;93.01
30730;BME280;17476;48.458;7.928;2023-08-06T02:00:00;99165.13;;;16.92;96.20
30730;BME280;17476;48.458;7.928;2023-08-06T02:02:26;99170.53;;;16.97;96.24
30730;BME280;17476;48.458;7.928;2023-08-06T02:04:52;99161.34;;;16.88;96.96
30730;BME280;17476;48.458;7.928;2023-08-06T02:07:18;99166.75;;;16.56;99.64
30730;BME280;17476;48.458;7.928;2023-08-06T02:09:43;99171.38;;;16.43;100.00
30730;BME280;17476;48.458;7.928;2023-08-06T02:12:09;99175.34;;;16.33;100.00
30730;BME280;17476;48.458;7.928;2023-08-06T02:14:35;99176.50;;;16.37;100.00
30730;BME280;17476;48.458;7.928;2023-08-06T02:17:03;99174.47;;;16.40;100.00
30730;BME280;17476;48.458;7.928;2023-08-06T02:19:29;99172.09;;;16.31;100.00
30730;BME280;17476;48.458;7.928;2023-08-06T02:21:55;99178.66;;;16.29;100.00
30730;BME280;17476;48.458;7.928;2023-08-06T02:24:20;99169.91;;;16.10;100.00
30730;BME280;17476;48.458;7.928;2023-08-06T02:26:46;99161.13;;;16.16;100.00
30730;BME280;17476;48.458;7.928;2023-08-06T02:29:14;99169.53;;;16.06;100.00
30730;BME280;17476;48.458;7.928;2023-08-06T02:31:39;99163.81;;;16.09;100.00
30730;BME280;17476;48.458;7.928;2023-08-06T02:34:05;99174.56;;;15.90;100.00
30730;BME280;17476;48.458;7.928;2023-08-06T02:36:31;99169.59;;;16.00;100.00
30730;BME280;17476;48.458;7.928;2023-08-06T02:38:57;99161.31;;;15.96;100.00
30730;BME280;17476;48.458;7.928;2023-08-06T02:41:22;99148.03;;;15.84;100.00
30730;BME280;17476;48.458;7.928;2023-08-06T02:43:48;99168.88;;;15.93;100.00
30730;BME280;17476;48.458;7.928;2023-08-06T02:46:14;99163.94;;;15.96;100.00
30730;BME280;17476;48.458;7.928;2023-08-06T02:48:39;99164.03;;;16.08;100.00
30730;BME280;17476;48.458;7.928;2023-08-06T02:51:05;99159.88;;;15.75;100.00
30730;BME280;17476;48.458;7.928;2023-08-06T02:53:31;99163.91;;;15.78;100.00
30730;BME280;17476;48.458;7.928;2023-08-06T02:55:57;99164.78;;;15.72;100.00
30730;BME280;17476;48.458;7.928;2023-08-06T02:58:24;99165.25;;;15.62;100.00
30730;BME280;17476;48.458;7.928;2023-08-06T03:01:04;99161.53;;;15.45;100.00
30730;BME280;17476;48.458;7.928;2023-08-06T03:03:34;99166.75;;;15.51;100.00
30730;BME280;17476;48.458;7.928;2023-08-06T03:06:00;99161.25;;;15.53;100.00
30730;BME280;17476;48.458;7.928;2023-08-06T03:08:26;99153.34;;;15.53;100.00
30730;BME280;17476;48.458;7.928;2023-08-06T03:10:53;99145.28;;;15.48;100.00
30730;BME280;17476;48.458;7.928;2023-08-06T03:13:19;99153.75;;;15.50;100.00
30730;BME280;17476;48.458;7.928;2023-08-06T03:15:56;99149.28;;;15.50;100.00
30730;BME280;17476;48.458;7.928;2023-08-06T03:18:22;99149.78;;;15.72;100.00
30730;BME280;17476;48.458;7.928;2023-08-06T03:20:48;99155.75;;;15.54;100.00
30730;BME280;17476;48.458;7.928;2023-08-06T03:23:14;99153.34;;;15.53;100.00
30730;BME280;17476;48.458;7.928;2023-08-06T03:25:40;99159.22;;;15.55;100.00
30730;BME280;17476;48.458;7.928;2023-08-06T03:28:06;99162.41;;;15.64;100.00
30730;BME280;17476;48.458;7.928;2023-08-06T03:30:32;99153.53;;;15.58;100.00
30730;BME280;17476;48.458;7.928;2023-08-06T03:32:58;99160.78;;;15.63;100.00
30730;BME280;17476;48.458;7.928;2023-08-06T03:35:23;99162.53;;;15.75;100.00
30730;BME280;17476;48.458;7.928;2023-08-06T03:37:49;99162.97;;;15.91;100.00
30730;BME280;17476;48.458;7.928;2023-08-06T03:40:15;99160.34;;;15.91;100.00
30730;BME280;17476;48.458;7.928;2023-08-06T03:42:41;99162.28;;;16.02;100.00
30730;BME280;17476;48.458;7.928;2023-08-06T03:45:07;99164.47;;;16.05;100.00
30730;BME280;17476;48.458;7.928;2023-08-06T03:47:34;99174.66;;;16.01;100.00
30730;BME280;17476;48.458;7.928;2023-08-06T03:49:59;99162.56;;;16.12;100.00
30730;BME280;17476;48.458;7.928;2023-08-06T03:52:25;99164.53;;;15.98;100.00
30730;BME280;17476;48.458;7.928;2023-08-06T03:54:51;99175.19;;;16.10;100.00
30730;BME280;17476;48.458;7.928;2023-08-06T03:57:17;99182.38;;;16.21;100.00
30730;BME280;17476;48.458;7.928;2023-08-06T03:59:43;99173.94;;;16.31;100.00
30730;BME280;17476;48.458;7.928;2023-08-06T04:02:09;99174.50;;;15.96;100.00
30730;BME280;17476;48.458;7.928;2023-08-06T04:04:34;99172.59;;;15.85;100.00
30730;BME280;17476;48.458;7.928;2023-08-06T04:07:00;99177.31;;;15.76;100.00
30730;BME280;17476;48.458;7.928;2023-08-06T04:09:28;99174.44;;;15.78;100.00
30730;BME280;17476;48.458;7.928;2023-08-06T04:11:54;99163.44;;;15.63;100.00
30730;BME280;17476;48.458;7.928;2023-08-06T04:14:20;99172.03;;;15.76;98.27
30730;BME280;17476;48.458;7.928;2023-08-06T04:16:46;99172.94;;;15.64;99.08
30730;BME280;17476;48.458;7.928;2023-08-06T04:19:12;99165.38;;;15.74;97.84
30730;BME280;17476;48.458;7.928;2023-08-06T04:21:37;99177.41;;;15.63;96.92
30730;BME280;17476;48.458;7.928;2023-08-06T04:24:03;99168.13;;;15.54;96.58
30730;BME280;17476;48.458;7.928;2023-08-06T04:26:29;99169.13;;;15.60;96.60
30730;BME280;17476;48.458;7.928;2023-08-06T04:28:55;99170.00;;;15.47;98.20
30730;BME280;17476;48.458;7.928;2023-08-06T04:31:22;99167.13;;;15.55;97.15
30730;BME280;17476;48.458;7.928;2023-08-06T04:33:48;99170.00;;;15.47;97.45
30730;BME280;17476;48.458;7.928;2023-08-06T04:36:14;99160.56;;;15.64;97.53
30730;BME280;17476;48.458;7.928;2023-08-06T04:38:40;99160.81;;;15.56;98.09
30730;BME280;17476;48.458;7.928;2023-08-06T04:41:10;99160.59;;;15.57;98.33
30730;BME280;17476;48.458;7.928;2023-08-06T04:43:36;99163.81;;;15.66;97.82
30730;BME280;17476;48.458;7.928;2023-08-06T04:46:02;99162.22;;;15.65;97.85
30730;BME280;17476;48.458;7.928;2023-08-06T04:48:28;99179.25;;;15.63;96.56
30730;BME280;17476;48.458;7.928;2023-08-06T04:50:54;99175.59;;;15.57;100.00
30730;BME280;17476;48.458;7.928;2023-08-06T04:53:20;99170.78;;;15.54;100.00
30730;BME280;17476;48.458;7.928;2023-08-06T04:55:46;99173.06;;;15.44;100.00
30730;BME280;17476;48.458;7.928;2023-08-06T04:58:13;99175.78;;;15.30;100.00
30730;BME280;17476;48.458;7.928;2023-08-06T05:00:39;99178.09;;;15.20;100.00
30730;BME280;17476;48.458;7.928;2023-08-06T05:03:05;99177.97;;;15.09;100.00
30730;BME280;17476;48.458;7.928;2023-08-06T05:05:31;99177.25;;;15.26;100.00
30730;BME280;17476;48.458;7.928;2023-08-06T05:07:57;99174.56;;;15.33;100.00
30730;BME280;17476;48.458;7.928;2023-08-06T05:10:26;99187.28;;;15.11;100.00
30730;BME280;17476;48.458;7.928;2023-08-06T05:12:52;99184.59;;;15.18;100.00
30730;BME280;17476;48.458;7.928;2023-08-06T05:15:18;99184.53;;;14.93;100.00
30730;BME280;17476;48.458;7.928;2023-08-06T05:17:44;99192.81;;;14.96;100.00
30730;BME280;17476;48.458;7.928;2023-08-06T05:20:11;99189.72;;;15.06;100.00
30730;BME280;17476;48.458;7.928;2023-08-06T05:22:37;99187.66;;;15.15;100.00
30730;BME280;17476;48.458;7.928;2023-08-06T05:25:03;99193.06;;;15.26;100.00
30730;BME280;17476;48.458;7.928;2023-08-06T05:27:29;99184.66;;;15.11;100.00
30730;BME280;17476;48.458;7.928;2023-08-06T05:29:55;99188.63;;;14.82;100.00
30730;BME280;17476;48.458;7.928;2023-08-06T05:32:22;99186.69;;;15.02;100.00
30730;BME280;17476;48.458;7.928;2023-08-06T05:34:48;99188.81;;;14.87;100.00
30730;BME280;17476;48.458;7.928;2023-08-06T05:37:13;99192.69;;;14.78;100.00
30730;BME280;17476;48.458;7.928;2023-08-06T05:39:39;99189.88;;;14.73;100.00
30730;BME280;17476;48.458;7.928;2023-08-06T05:42:07;99201.59;;;14.84;100.00
30730;BME280;17476;48.458;7.928;2023-08-06T05:44:33;99198.59;;;14.67;100.00
30730;BME280;17476;48.458;7.928;2023-08-06T05:46:59;99201.03;;;14.68;100.00
30730;BME280;17476;48.458;7.928;2023-08-06T05:49:25;99204.06;;;14.72;100.00
30730;BME280;17476;48.458;7.928;2023-08-06T05:51:51;99210.97;;;14.66;100.00
30730;BME280;17476;48.458;7.928;2023-08-06T05:54:19;99215.78;;;14.76;100.00
30730;BME280;17476;48.458;7.928;2023-08-06T05:56:44;99215.16;;;14.81;100.00
30730;BME280;17476;48.458;7.928;2023-08-06T05:59:10;99209.03;;;14.93;100.00
30730;BME280;17476;48.458;7.928;2023-08-06T06:01:36;99208.47;;;14.85;100.00
30730;BME280;17476;48.458;7.928;2023-08-06T06:04:02;99209.25;;;14.92;100.00
30730;BME280;17476;48.458;7.928;2023-08-06T06:06:27;99207.06;;;15.20;100.00
30730;BME280;17476;48.458;7.928;2023-08-06T06:08:53;99224.59;;;15.01;100.00
30730;BME280;17476;48.458;7.928;2023-08-06T06:11:19;99215.44;;;15.11;100.00
30730;BME280;17476;48.458;7.928;2023-08-06T06:13:51;99219.63;;;15.25;100.00
30730;BME280;17476;48.458;7.928;2023-08-06T06:16:17;99228.16;;;15.20;100.00
30730;BME280;17476;48.458;7.928;2023-08-06T06:18:43;99228.44;;;15.06;100.00
30730;BME280;17476;48.458;7.928;2023-08-06T06:21:10;99227.09;;;15.28;100.00
30730;BME280;17476;48.458;7.928;2023-08-06T06:23:36;99235.47;;;15.18;100.00
30730;BME280;17476;48.458;7.928;2023-08-06T06:26:02;99238.31;;;15.10;100.00
30730;BME280;17476;48.458;7.928;2023-08-06T06:28:28;99249.81;;;14.78;100.00
30730;BME280;17476;48.458;7.928;2023-08-06T06:30:53;99243.34;;;14.67;100.00
30730;BME280;17476;48.458;7.928;2023-08-06T06:33:25;99248.22;;;14.63;100.00
30730;BME280;17476;48.458;7.928;2023-08-06T06:35:50;99254.94;;;14.46;100.00
30730;BME280;17476;48.458;7.928;2023-08-06T06:38:16;99249.47;;;14.47;100.00
30730;BME280;17476;48.458;7.928;2023-08-06T06:40:42;99257.78;;;14.31;100.00
30730;BME280;17476;48.458;7.928;2023-08-06T06:43:07;99262.22;;;14.44;100.00
30730;BME280;17476;48.458;7.928;2023-08-06T06:45:33;99262.38;;;14.42;100.00
30730;BME280;17476;48.458;7.928;2023-08-06T06:47:59;99250.66;;;14.45;100.00
30730;BME280;17476;48.458;7.928;2023-08-06T06:50:25;99261.56;;;14.68;100.00
30730;BME280;17476;48.458;7.928;2023-08-06T06:52:51;99261.78;;;14.60;100.00
30730;BME280;17476;48.458;7.928;2023-08-06T06:55:17;99255.13;;;14.51;100.00
30730;BME280;17476;48.458;7.928;2023-08-06T06:57:43;99255.13;;;14.51;100.00
30730;BME280;17476;48.458;7.928;2023-08-06T07:00:09;99251.47;;;14.59;100.00
30730;BME280;17476;48.458;7.928;2023-08-06T07:02:35;99246.81;;;14.54;100.00
30730;BME280;17476;48.458;7.928;2023-08-06T07:05:01;99252.06;;;14.41;100.00
30730;BME280;17476;48.458;7.928;2023-08-06T07:07:26;99253.50;;;14.57;100.00
30730;BME280;17476;48.458;7.928;2023-08-06T07:09:52;99252.09;;;14.54;100.00
30730;BME280;17476;48.458;7.928;2023-08-06T07:12:18;99254.91;;;14.59;100.00
30730;BME280;17476;48.458;7.928;2023-08-06T07:14:44;99261.75;;;14.73;100.00
30730;BME280;17476;48.458;7.928;2023-08-06T07:17:10;99261.41;;;14.63;100.00
30730;BME280;17476;48.458;7.928;2023-08-06T07:19:35;99267.22;;;14.72;100.00
30730;BME280;17476;48.458;7.928;2023-08-06T07:22:01;99264.16;;;14.82;100.00
30730;BME280;17476;48.458;7.928;2023-08-06T07:24:27;99272.66;;;14.90;100.00
30730;BME280;17476;48.458;7.928;2023-08-06T07:26:52;99273.31;;;14.72;100.00
30730;BME280;17476;48.458;7.928;2023-08-06T07:29:18;99278.31;;;14.87;100.00
30730;BME280;17476;48.458;7.928;2023-08-06T07:31:47;99282.16;;;14.91;100.00
30730;BME280;17476;48.458;7.928;2023-08-06T07:34:12;99278.31;;;14.87;100.00
30730;BME280;17476;48.458;7.928;2023-08-06T07:36:38;99289.63;;;14.94;100.00
30730;BME280;17476;48.458;7.928;2023-08-06T07:39:04;99286.81;;;14.89;100.00
30730;BME280;17476;48.458;7.928;2023-08-06T07:41:31;99284.94;;;15.03;100.00
30730;BME280;17476;48.458;7.928;2023-08-06T07:43:57;99295.69;;;15.01;100.00
30730;BME280;17476;48.458;7.928;2023-08-06T07:46:23;99285.75;;;15.03;100.00
30730;BME280;17476;48.458;7.928;2023-08-06T07:48:49;99284.94;;;15.03;100.00
30730;BME280;17476;48.458;7.928;2023-08-06T07:51:15;99289.81;;;15.06;100.00
30730;BME280;17476;48.458;7.928;2023-08-06T07:53:40;99295.25;;;15.11;100.00
30730;BME280;17476;48.458;7.928;2023-08-06T07:56:06;99293.00;;;15.15;100.00
30730;BME280;17476;48.458;7.928;2023-08-06T07:58:32;99292.22;;;15.08;100.00
30730;BME280;17476;48.458;7.928;2023-08-06T08:00:58;99291.84;;;15.04;100.00
30730;BME280;17476;48.458;7.928;2023-08-06T08:03:23;99295.13;;;14.93;100.00
30730;BME280;17476;48.458;7.928;2023-08-06T08:05:49;99301.22;;;14.80;100.00
30730;BME280;17476;48.458;7.928;2023-08-06T08:08:15;99310.31;;;14.97;100.00
30730;BME280;17476;48.458;7.928;2023-08-06T08:10:41;99317.16;;;15.05;100.00
30730;BME280;17476;48.458;7.928;2023-08-06T08:13:07;99308.63;;;15.03;100.00
30730;BME280;17476;48.458;7.928;2023-08-06T08:15:33;99305.22;;;14.96;100.00
30730;BME280;17476;48.458;7.928;2023-08-06T08:17:59;99308.28;;;14.93;100.00
30730;BME280;17476;48.458;7.928;2023-08-06T08:20:26;99304.03;;;14.92;100.00
30730;BME280;17476;48.458;7.928;2023-08-06T08:22:58;99314.34;;;14.93;100.00
30730;BME280;17476;48.458;7.928;2023-08-06T08:25:24;99321.59;;;15.11;100.00
30730;BME280;17476;48.458;7.928;2023-08-06T08:27:51;99315.69;;;15.16;100.00
30730;BME280;17476;48.458;7.928;2023-08-06T08:30:16;99310.66;;;15.08;100.00
30730;BME280;17476;48.458;7.928;2023-08-06T08:32:42;99309.41;;;15.10;100.00
30730;BME280;17476;48.458;7.928;2023-08-06T08:35:08;99307.38;;;15.19;100.00
30730;BME280;17476;48.458;7.928;2023-08-06T08:37:35;99318.47;;;15.27;100.00
30730;BME280;17476;48.458;7.928;2023-08-06T08:40:02;99312.88;;;15.11;100.00
30730;BME280;17476;48.458;7.928;2023-08-06T08:42:29;99322.03;;;14.95;100.00
30730;BME280;17476;48.458;7.928;2023-08-06T08:44:55;99319.56;;;15.13;100.00
30730;BME280;17476;48.458;7.928;2023-08-06T08:47:21;99316.63;;;15.35;100.00
30730;BME280;17476;48.458;7.928;2023-08-06T08:49:49;99328.59;;;15.30;100.00
30730;BME280;17476;48.458;7.928;2023-08-06T08:52:18;99331.81;;;15.39;100.00
30730;BME280;17476;48.458;7.928;2023-08-06T08:54:44;99328.34;;;15.45;100.00
30730;BME280;17476;48.458;7.928;2023-08-06T08:57:11;99328.28;;;15.65;100.00
30730;BME280;17476;48.458;7.928;2023-08-06T08:59:37;99338.97;;;15.70;100.00
30730;BME280;17476;48.458;7.928;2023-08-06T09:02:03;99340.09;;;15.88;100.00
30730;BME280;17476;48.458;7.928;2023-08-06T09:04:30;99339.66;;;15.91;100.00
30730;BME280;17476;48.458;7.928;2023-08-06T09:07:01;99338.50;;;15.87;100.00
30730;BME280;17476;48.458;7.928;2023-08-06T09:09:31;99346.53;;;15.92;100.00
30730;BME280;17476;48.458;7.928;2023-08-06T09:12:01;99340.22;;;15.68;100.00
30730;BME280;17476;48.458;7.928;2023-08-06T09:14:28;99353.59;;;15.98;100.00
30730;BME280;17476;48.458;7.928;2023-08-06T09:16:54;99360.03;;;16.08;100.00
30730;BME280;17476;48.458;7.928;2023-08-06T09:19:20;99354.28;;;15.93;100.00
30730;BME280;17476;48.458;7.928;2023-08-06T09:21:50;99352.88;;;15.84;100.00
30730;BME280;17476;48.458;7.928;2023-08-06T09:24:16;99352.47;;;15.87;100.00
30730;BME280;17476;48.458;7.928;2023-08-06T09:26:44;99359.25;;;15.70;100.00
30730;BME280;17476;48.458;7.928;2023-08-06T09:29:10;99361.28;;;15.74;100.00
30730;BME280;17476;48.458;7.928;2023-08-06T09:34:17;99367.94;;;15.77;100.00
30730;BME280;17476;48.458;7.928;2023-08-06T09:36:49;99380.50;;;15.81;100.00
30730;BME280;17476;48.458;7.928;2023-08-06T09:39:18;99377.28;;;15.79;100.00
30730;BME280;17476;48.458;7.928;2023-08-06T09:41:44;99380.13;;;15.71;100.00
30730;BME280;17476;48.458;7.928;2023-08-06T09:44:25;99386.53;;;15.89;100.00
30730;BME280;17476;48.458;7.928;2023-08-06T09:46:56;99392.81;;;15.94;100.00
30730;BME280;17476;48.458;7.928;2023-08-06T09:49:40;99398.28;;;15.93;100.00
30730;BME280;17476;48.458;7.928;2023-08-06T09:52:13;99393.25;;;15.84;100.00
30730;BME280;17476;48.458;7.928;2023-08-06T09:54:39;99405.22;;;15.87;100.00
30730;BME280;17476;48.458;7.928;2023-08-06T09:57:05;99404.38;;;15.93;100.00
30730;BME280;17476;48.458;7.928;2023-08-06T09:59:32;99409.44;;;15.95;100.00
30730;BME280;17476;48.458;7.928;2023-08-06T10:01:59;99420.19;;;15.93;100.00
30730;BME280;17476;48.458;7.928;2023-08-06T10:04:26;99423.66;;;15.94;100.00
30730;BME280;17476;48.458;7.928;2023-08-06T10:06:52;99424.44;;;15.94;100.00
30730;BME280;17476;48.458;7.928;2023-08-06T10:09:19;99431.97;;;15.91;100.00
30730;BME280;17476;48.458;7.928;2023-08-06T10:11:51;99453.72;;;15.79;100.00
30730;BME280;17476;48.458;7.928;2023-08-06T10:14:32;99430.16;;;15.84;100.00
30730;BME280;17476;48.458;7.928;2023-08-06T10:17:00;99438.25;;;15.90;100.00
30730;BME280;17476;48.458;7.928;2023-08-06T10:19:27;99446.88;;;15.72;100.00
30730;BME280;17476;48.458;7.928;2023-08-06T10:22:15;99452.53;;;15.75;100.00
30730;BME280;17476;48.458;7.928;2023-08-06T10:24:59;99449.47;;;15.85;100.00
30730;BME280;17476;48.458;7.928;2023-08-06T10:27:41;99455.81;;;16.09;100.00
30730;BME280;17476;48.458;7.928;2023-08-06T10:30:28;99473.81;;;16.19;100.00
30730;BME280;17476;48.458;7.928;2023-08-06T10:32:57;99469.75;;;16.23;100.00
30730;BME280;17476;48.458;7.928;2023-08-06T10:35:36;99468.09;;;16.28;100.00
30730;BME280;17476;48.458;7.928;2023-08-06T10:38:15;99470.91;;;16.33;100.00
30730;BME280;17476;48.458;7.928;2023-08-06T10:41:04;99484.69;;;16.35;100.00
30730;BME280;17476;48.458;7.928;2023-08-06T10:43:32;99505.72;;;16.49;100.00
30730;BME280;17476;48.458;7.928;2023-08-06T10:46:01;99494.16;;;16.50;97.25
30730;BME280;17476;48.458;7.928;2023-08-06T10:48:36;99508.44;;;16.35;94.01
30730;BME280;17476;48.458;7.928;2023-08-06T10:51:03;99507.00;;;16.40;94.88
30730;BME280;17476;48.458;7.928;2023-08-06T10:53:30;99512.69;;;16.36;92.53
30730;BME280;17476;48.458;7.928;2023-08-06T10:55:55;99519.63;;;16.31;94.37
30730;BME280;17476;48.458;7.928;2023-08-06T10:58:21;99513.69;;;16.42;92.96
30730;BME280;17476;48.458;7.928;2023-08-06T11:00:47;99523.91;;;16.25;91.32
30730;BME280;17476;48.458;7.928;2023-08-06T11:03:13;99518.41;;;16.33;91.45
30730;BME280;17476;48.458;7.928;2023-08-06T11:05:49;99524.66;;;16.39;91.88
30730;BME280;17476;48.458;7.928;2023-08-06T11:08:26;99534.28;;;16.27;93.02
30730;BME280;17476;48.458;7.928;2023-08-06T11:10:52;99531.34;;;16.42;92.57
30730;BME280;17476;48.458;7.928;2023-08-06T11:13:18;99530.47;;;16.54;89.87
30730;BME280;17476;48.458;7.928;2023-08-06T11:15:45;99529.06;;;16.52;91.66
30730;BME280;17476;48.458;7.928;2023-08-06T11:18:11;99530.56;;;16.73;89.18
30730;BME280;17476;48.458;7.928;2023-08-06T11:20:38;99532.97;;;16.81;88.66
30730;BME280;17476;48.458;7.928;2023-08-06T11:23:05;99531.84;;;16.95;88.28
30730;BME280;17476;48.458;7.928;2023-08-06T11:25:31;99534.31;;;16.90;87.22
30730;BME280;17476;48.458;7.928;2023-08-06T11:27:56;99534.38;;;16.83;88.00
30730;BME280;17476;48.458;7.928;2023-08-06T11:30:22;99540.06;;;16.87;87.45
30730;BME280;17476;48.458;7.928;2023-08-06T11:32:48;99545.44;;;16.67;87.54
30730;BME280;17476;48.458;7.928;2023-08-06T11:35:18;99539.63;;;16.52;89.04
30730;BME280;17476;48.458;7.928;2023-08-06T11:37:45;99532.00;;;16.69;87.73
30730;BME280;17476;48.458;7.928;2023-08-06T11:40:11;99543.19;;;16.71;85.45
30730;BME280;17476;48.458;7.928;2023-08-06T11:42:38;99543.97;;;16.40;89.18
30730;BME280;17476;48.458;7.928;2023-08-06T11:45:04;99536.59;;;16.48;89.84
30730;BME280;17476;48.458;7.928;2023-08-06T11:47:30;99538.03;;;16.44;90.99
30730;BME280;17476;48.458;7.928;2023-08-06T11:49:56;99547.38;;;16.47;90.79
30730;BME280;17476;48.458;7.928;2023-08-06T11:52:24;99533.53;;;16.51;90.88
30730;BME280;17476;48.458;7.928;2023-08-06T11:55:07;99544.28;;;16.56;91.78
30730;BME280;17476;48.458;7.928;2023-08-06T11:57:36;99540.81;;;16.56;89.57
30730;BME280;17476;48.458;7.928;2023-08-06T12:00:08;99544.00;;;16.33;91.47
30730;BME280;17476;48.458;7.928;2023-08-06T12:02:35;99530.41;;;16.29;92.80
30730;BME280;17476;48.458;7.928;2023-08-06T12:05:13;99541.44;;;16.51;91.02
30730;BME280;17476;48.458;7.928;2023-08-06T12:07:53;99541.56;;;16.70;89.31
30730;BME280;17476;48.458;7.928;2023-08-06T12:10:21;99541.16;;;16.66;91.50
30730;BME280;17476;48.458;7.928;2023-08-06T12:12:48;99544.00;;;16.64;90.71
30730;BME280;17476;48.458;7.928;2023-08-06T12:15:14;99539.47;;;16.78;88.29
30730;BME280;17476;48.458;7.928;2023-08-06T12:17:40;99549.69;;;16.68;90.03
30730;BME280;17476;48.458;7.928;2023-08-06T12:20:07;99543.78;;;16.73;89.23
30730;BME280;17476;48.458;7.928;2023-08-06T12:22:34;99553.88;;;16.82;89.26
30730;BME280;17476;48.458;7.928;2023-08-06T12:25:08;99550.63;;;16.87;90.40
30730;BME280;17476;48.458;7.928;2023-08-06T12:27:39;99551.44;;;16.87;87.45
30730;BME280;17476;48.458;7.928;2023-08-06T12:30:07;99546.63;;;17.03;87.59
30730;BME280;17476;48.458;7.928;2023-08-06T12:32:33;99555.09;;;17.11;85.77
30730;BME280;17476;48.458;7.928;2023-08-06T12:35:00;99551.13;;;17.45;84.34
30730;BME280;17476;48.458;7.928;2023-08-06T12:37:26;99556.13;;;17.79;80.71
30730;BME280;17476;48.458;7.928;2023-08-06T12:39:52;99551.66;;;17.79;79.91
30730;BME280;17476;48.458;7.928;2023-08-06T12:42:19;99564.19;;;17.40;80.81
30730;BME280;17476;48.458;7.928;2023-08-06T12:44:44;99564.81;;;17.42;82.94
30730;BME280;17476;48.458;7.928;2023-08-06T12:47:10;99567.91;;;17.14;86.35
30730;BME280;17476;48.458;7.928;2023-08-06T12:49:36;99563.84;;;17.37;86.88
30730;BME280;17476;48.458;7.928;2023-08-06T12:52:02;99568.84;;;17.45;84.42
30730;BME280;17476;48.458;7.928;2023-08-06T12:54:30;99571.31;;;17.65;83.30
30730;BME280;17476;48.458;7.928;2023-08-06T12:57:02;99565.59;;;17.86;85.05
30730;BME280;17476;48.458;7.928;2023-08-06T12:59:28;99569.94;;;17.99;82.56
30730;BME280;17476;48.458;7.928;2023-08-06T13:01:54;99568.41;;;18.88;80.61